Dyer, Arkansas
Current Conditions -  °F | °C
As of 8:53 PM on Saturday 22 Nov 2014 (Local Time) from KFSM Reporting Station
Haze Haze  
Wind Chill: 53°   Ceiling: 400
Heat Index: 53°   Visibility: 4mi
Dew Point: 51°   Wind: 7mph
Humidity: 93%   Direction: 70°ENE
Pressure: 29.88"   Gusts: NA
Location:  35.49°N, 94.14°W
Report Text: KFSM 230253Z 07006KT 4SM BR OVC004 12/11 A2988 RMK AO2 SLP117 T01170106 58021
Loading
Personal Weather Stations






























Interactive Weather Map New forecast layout! Learn more

10-Day Weather Forecast

Advertisements
Track Severe Weather on mobile